createdAt,value
2022-11-02T00:00:45.766Z,10.74
2022-11-02T00:03:48.790Z,10.82
2022-11-02T00:06:51.188Z,10.77
2022-11-02T00:09:53.947Z,10.70
2022-11-02T00:12:56.808Z,10.65
2022-11-02T00:16:05.568Z,10.60
2022-11-02T00:19:09.175Z,10.49
2022-11-02T00:22:12.032Z,10.47
2022-11-02T00:25:17.281Z,10.53
2022-11-02T00:28:20.351Z,10.51
2022-11-02T00:31:22.813Z,10.39
2022-11-02T00:34:25.608Z,10.31
2022-11-02T00:37:28.193Z,10.29
2022-11-02T00:40:31.889Z,10.36
2022-11-02T00:43:34.631Z,10.27
2022-11-02T00:46:37.468Z,10.27
2022-11-02T00:49:40.263Z,10.19
2022-11-02T00:52:43.698Z,10.32
2022-11-02T00:55:47.567Z,10.29
2022-11-02T00:58:50.389Z,10.33
2022-11-02T01:01:53.008Z,10.25
2022-11-02T01:04:56.060Z,10.16
2022-11-02T01:07:58.551Z,10.18
2022-11-02T01:11:13.146Z,10.26
2022-11-02T01:14:15.727Z,10.47
2022-11-02T01:17:29.890Z,10.49
2022-11-02T01:20:32.392Z,10.46
2022-11-02T01:23:37.186Z,10.41
2022-11-02T01:26:39.734Z,10.34
2022-11-02T01:29:42.556Z,10.21
2022-11-02T01:32:45.167Z,10.24
2022-11-02T01:35:48.084Z,10.13
2022-11-02T01:38:51.268Z,10.33
2022-11-02T01:41:55.312Z,10.27
2022-11-02T01:44:59.174Z,10.21
2022-11-02T01:48:02.374Z,10.52
2022-11-02T01:51:09.609Z,10.44
2022-11-02T01:54:20.096Z,10.60
2022-11-02T01:57:25.012Z,10.52
2022-11-02T02:00:27.769Z,10.41
2022-11-02T02:03:32.962Z,10.45
2022-11-02T02:06:35.702Z,10.30
2022-11-02T02:09:40.896Z,10.31
2022-11-02T02:12:44.274Z,10.44
2022-11-02T02:16:12.798Z,10.36
2022-11-02T02:19:44.565Z,10.34
2022-11-02T02:23:16.086Z,10.36
2022-11-02T02:26:58.084Z,10.32
2022-11-02T02:30:03.585Z,10.42
2022-11-02T02:33:13.898Z,10.43
2022-11-02T02:36:42.942Z,10.44
2022-11-02T02:40:03.396Z,10.44
2022-11-02T02:43:15.570Z,10.38
2022-11-02T02:46:39.197Z,10.44
2022-11-02T02:49:52.672Z,10.44
2022-11-02T02:52:58.113Z,10.47
2022-11-02T02:56:03.330Z,10.44
2022-11-02T02:59:11.749Z,10.62
2022-11-02T03:02:24.713Z,10.57
2022-11-02T03:05:31.807Z,10.58
2022-11-02T03:08:38.511Z,10.38
2022-11-02T03:11:56.960Z,10.43
2022-11-02T03:15:00.575Z,10.24
2022-11-02T03:18:18.349Z,10.37
2022-11-02T03:21:43.584Z,10.30
2022-11-02T03:25:02.533Z,10.27
2022-11-02T03:28:16.371Z,10.27
2022-11-02T03:31:31.642Z,10.09
2022-11-02T03:34:41.493Z,10.24
2022-11-02T03:37:53.050Z,10.12
2022-11-02T03:40:57.731Z,10.07
2022-11-02T03:44:07.657Z,10.18
2022-11-02T03:47:13.133Z,10.13
2022-11-02T03:50:20.829Z,10.24
2022-11-02T03:53:36.244Z,10.16
2022-11-02T03:56:46.290Z,10.32
2022-11-02T03:59:49.802Z,10.17
2022-11-02T04:02:56.375Z,10.15
2022-11-02T04:05:59.415Z,10.08
2022-11-02T04:09:02.243Z,10.17
2022-11-02T04:12:24.193Z,10.18
2022-11-02T04:15:26.980Z,10.15
2022-11-02T04:18:48.425Z,10.18
2022-11-02T04:22:10.334Z,10.28
2022-11-02T04:25:16.247Z,10.36
2022-11-02T04:28:19.751Z,10.37
2022-11-02T04:31:25.657Z,10.33
2022-11-02T04:34:28.512Z,10.31
2022-11-02T04:37:50.243Z,10.13
2022-11-02T04:41:12.969Z,10.19
2022-11-02T04:44:16.101Z,10.22
2022-11-02T04:47:19.377Z,10.26
2022-11-02T04:50:23.179Z,10.27
2022-11-02T04:53:25.751Z,10.13
2022-11-02T04:56:30.179Z,10.18
2022-11-02T04:59:32.910Z,10.30
2022-11-02T05:02:35.839Z,10.42
2022-11-02T05:05:38.465Z,10.55
2022-11-02T05:08:42.423Z,10.51
2022-11-02T05:11:45.343Z,10.50
2022-11-02T05:14:48.387Z,10.54
2022-11-02T05:17:54.818Z,10.57
2022-11-02T05:21:00.343Z,10.52
2022-11-02T05:24:03.522Z,10.61
2022-11-02T05:27:06.971Z,10.54
2022-11-02T05:30:10.379Z,10.52
2022-11-02T05:33:13.568Z,10.57
2022-11-02T05:36:16.630Z,10.53
2022-11-02T05:39:20.315Z,10.49
2022-11-02T05:42:23.294Z,10.50
2022-11-02T05:45:27.140Z,10.50
2022-11-02T05:48:32.579Z,10.51
2022-11-02T05:51:35.656Z,10.42
2022-11-02T05:54:38.283Z,10.49
2022-11-02T05:57:41.036Z,10.47
2022-11-02T06:00:43.529Z,10.52
2022-11-02T06:03:52.110Z,10.59
2022-11-02T06:06:57.227Z,10.72
2022-11-02T06:10:00.044Z,10.69
2022-11-02T06:13:05.592Z,10.68
2022-11-02T06:16:10.906Z,10.67
2022-11-02T06:22:21.260Z,10.69
2022-11-02T06:25:23.730Z,10.66
2022-11-02T06:28:27.524Z,10.73
2022-11-02T06:31:30.408Z,10.76
2022-11-02T06:34:33.314Z,10.92
2022-11-02T06:37:35.890Z,10.95
2022-11-02T06:40:39.017Z,10.98
2022-11-02T06:43:41.801Z,11.07
2022-11-02T06:46:44.628Z,11.09
2022-11-02T06:49:47.128Z,11.04
2022-11-02T06:52:52.616Z,11.04
2022-11-02T06:55:56.890Z,11.13
2022-11-02T06:59:00.093Z,11.10
2022-11-02T07:02:03.553Z,10.93
2022-11-02T07:05:07.155Z,11.14
2022-11-02T07:08:09.995Z,11.11
2022-11-02T07:11:15.849Z,11.06
2022-11-02T07:14:19.575Z,10.98
2022-11-02T07:17:22.398Z,11.16
2022-11-02T07:20:25.141Z,11.06
2022-11-02T07:23:28.161Z,11.01
2022-11-02T07:26:30.757Z,11.14
2022-11-02T07:29:33.556Z,11.18
2022-11-02T07:32:43.607Z,11.35
2022-11-02T07:35:46.420Z,11.38
2022-11-02T07:38:48.971Z,11.33
2022-11-02T07:41:52.228Z,11.40
2022-11-02T07:44:55.065Z,11.45
2022-11-02T07:47:57.950Z,11.43
2022-11-02T07:51:00.588Z,11.53
2022-11-02T07:54:03.530Z,11.75
2022-11-02T07:57:06.115Z,11.69
2022-11-02T08:00:12.495Z,11.64
2022-11-02T08:03:15.472Z,11.42
2022-11-02T08:06:18.031Z,11.74
2022-11-02T08:09:21.254Z,12.14
2022-11-02T08:12:23.774Z,12.67
2022-11-02T08:15:27.945Z,14.82
2022-11-02T08:18:31.258Z,14.78
2022-11-02T08:21:34.134Z,14.03
2022-11-02T08:24:36.604Z,13.39
2022-11-02T08:27:45.571Z,13.24
2022-11-02T08:30:48.238Z,13.43
2022-11-02T08:33:51.148Z,14.77
2022-11-02T08:36:53.829Z,15.07
2022-11-02T08:39:56.763Z,14.29
2022-11-02T08:43:00.564Z,14.62
2022-11-02T08:46:14.835Z,16.13
2022-11-02T08:49:18.799Z,16.24
2022-11-02T08:52:21.693Z,17.46
2022-11-02T08:55:24.363Z,17.36
2022-11-02T08:58:27.496Z,16.92
2022-11-02T09:01:30.260Z,15.54
2022-11-02T09:04:33.128Z,15.35
2022-11-02T09:07:35.747Z,15.22
2022-11-02T09:10:39.381Z,14.93
2022-11-02T09:13:42.232Z,15.14
2022-11-02T09:16:45.115Z,14.74
2022-11-02T09:19:47.782Z,14.61
2022-11-02T09:22:50.729Z,14.51
2022-11-02T09:25:53.802Z,15.16
2022-11-02T09:28:56.671Z,16.26
2022-11-02T09:31:59.416Z,17.28
2022-11-02T09:35:06.269Z,16.78
2022-11-02T09:38:09.408Z,16.30
2022-11-02T09:41:20.262Z,16.13
2022-11-02T09:44:31.899Z,16.10
2022-11-02T09:51:07.960Z,15.63
2022-11-02T09:54:50.817Z,15.67
2022-11-02T09:58:02.162Z,15.89
2022-11-02T10:01:29.095Z,15.32
2022-11-02T10:05:09.527Z,15.82
2022-11-02T10:08:49.422Z,15.40
2022-11-02T10:12:11.786Z,15.30
2022-11-02T10:15:22.646Z,15.21
2022-11-02T10:18:28.249Z,15.74
2022-11-02T10:21:33.928Z,15.79
2022-11-02T10:24:48.238Z,15.58
2022-11-02T10:28:01.185Z,15.62
2022-11-02T10:31:15.706Z,15.71
2022-11-02T10:34:28.130Z,15.69
2022-11-02T10:38:14.830Z,15.47
2022-11-02T10:41:20.863Z,15.89
2022-11-02T10:44:48.460Z,16.07
2022-11-02T10:48:23.545Z,16.20
2022-11-02T10:51:26.619Z,16.31
2022-11-02T10:54:33.304Z,16.80
2022-11-02T10:57:39.670Z,18.29
2022-11-02T11:00:43.847Z,18.90
2022-11-02T11:03:55.862Z,19.83
2022-11-02T11:07:04.803Z,18.96
2022-11-02T11:10:15.569Z,18.95
2022-11-02T11:16:50.216Z,19.23
2022-11-02T11:19:55.802Z,20.45
2022-11-02T11:23:19.416Z,19.41
2022-11-02T11:26:31.415Z,19.39
2022-11-02T11:29:37.746Z,20.27
2022-11-02T11:32:47.339Z,20.30
2022-11-02T11:35:51.140Z,19.87
2022-11-02T11:39:00.356Z,18.81
2022-11-02T11:42:05.265Z,20.33
2022-11-02T11:45:30.432Z,20.04
2022-11-02T11:48:42.345Z,20.80
2022-11-02T11:51:50.806Z,20.08
2022-11-02T11:54:58.839Z,19.66
2022-11-02T11:58:27.777Z,19.23
2022-11-02T12:01:40.271Z,19.40
2022-11-02T12:04:43.239Z,19.54
2022-11-02T12:08:30.553Z,19.46
2022-11-02T12:11:59.537Z,19.56
2022-11-02T12:15:25.624Z,19.21
2022-11-02T12:18:36.747Z,19.24
2022-11-02T12:21:54.557Z,18.55
2022-11-02T12:25:19.383Z,18.50
2022-11-02T12:28:38.858Z,18.82
2022-11-02T12:31:45.609Z,18.23
2022-11-02T12:35:27.336Z,18.35
2022-11-02T12:38:53.626Z,17.98
2022-11-02T12:42:25.768Z,18.01
2022-11-02T12:45:43.581Z,18.09
2022-11-02T12:49:10.325Z,17.88
2022-11-02T12:52:13.063Z,18.05
2022-11-02T12:55:20.992Z,17.76
2022-11-02T12:58:28.873Z,18.04
2022-11-02T13:01:43.359Z,17.90
2022-11-02T13:04:58.197Z,17.97
2022-11-02T13:08:21.273Z,18.13
2022-11-02T13:11:32.149Z,18.05
2022-11-02T13:14:57.988Z,18.01
2022-11-02T13:18:07.868Z,17.98
2022-11-02T13:21:15.778Z,18.09
2022-11-02T13:24:27.865Z,17.98
2022-11-02T13:27:42.686Z,17.90
2022-11-02T13:30:47.721Z,18.01
2022-11-02T13:33:56.716Z,17.89
2022-11-02T13:37:23.908Z,17.93
2022-11-02T13:40:34.190Z,17.91
2022-11-02T13:43:55.852Z,17.93
2022-11-02T13:47:23.479Z,18.16
2022-11-02T13:50:28.551Z,18.12
2022-11-02T13:53:37.902Z,17.94
2022-11-02T13:56:41.777Z,17.91
2022-11-02T13:59:45.338Z,17.85
2022-11-02T14:03:11.918Z,17.89
2022-11-02T14:06:17.539Z,17.75
2022-11-02T14:09:32.899Z,17.53
2022-11-02T14:12:46.568Z,17.42
2022-11-02T14:15:52.894Z,17.34
2022-11-02T14:19:19.254Z,17.45
2022-11-02T14:22:23.569Z,17.24
2022-11-02T14:25:50.445Z,17.26
2022-11-02T14:28:53.099Z,17.34
2022-11-02T14:32:03.430Z,17.27
2022-11-02T14:35:32.499Z,17.23
2022-11-02T14:38:41.100Z,17.05
2022-11-02T14:42:04.792Z,17.18
2022-11-02T14:45:16.961Z,17.13
2022-11-02T14:48:19.839Z,16.94
2022-11-02T14:51:24.332Z,16.91
2022-11-02T14:54:30.761Z,17.01
2022-11-02T14:57:40.658Z,16.92
2022-11-02T15:00:49.305Z,16.72
2022-11-02T15:03:53.333Z,16.76
2022-11-02T15:06:59.690Z,16.64
2022-11-02T15:10:25.684Z,16.56
2022-11-02T15:13:37.162Z,16.58
2022-11-02T15:16:41.422Z,16.52
2022-11-02T15:19:47.083Z,16.58
2022-11-02T15:23:26.539Z,16.62
2022-11-02T15:26:42.464Z,16.61
2022-11-02T15:29:46.193Z,16.65
2022-11-02T15:32:57.610Z,16.90
2022-11-02T15:36:06.477Z,16.72
2022-11-02T15:39:12.604Z,16.75
2022-11-02T15:42:15.330Z,16.71
2022-11-02T15:45:48.998Z,16.68
2022-11-02T15:49:13.122Z,16.69
2022-11-02T15:53:24.896Z,16.67
2022-11-02T15:56:39.317Z,16.66
2022-11-02T15:59:44.482Z,16.59
2022-11-02T16:02:53.064Z,16.54
2022-11-02T16:05:59.200Z,16.56
2022-11-02T16:09:34.666Z,16.43
2022-11-02T16:12:37.488Z,16.43
2022-11-02T16:15:43.704Z,16.20
2022-11-02T16:18:52.901Z,16.07
2022-11-02T16:22:00.123Z,16.09
2022-11-02T16:25:12.176Z,16.05
2022-11-02T16:28:20.629Z,15.99
2022-11-02T16:31:30.777Z,15.76
2022-11-02T16:34:33.974Z,15.84
2022-11-02T16:37:37.264Z,15.71
2022-11-02T16:40:40.259Z,15.44
2022-11-02T16:43:46.114Z,15.38
2022-11-02T16:46:52.642Z,15.60
2022-11-02T16:49:55.494Z,15.59
2022-11-02T16:53:03.945Z,15.54
2022-11-02T16:56:32.636Z,15.42
2022-11-02T16:59:36.053Z,15.33
2022-11-02T17:02:42.150Z,15.32
2022-11-02T17:05:49.575Z,15.29
2022-11-02T17:08:56.160Z,15.07
2022-11-02T17:12:05.046Z,14.90
2022-11-02T17:15:22.816Z,14.87
2022-11-02T17:18:29.302Z,14.84
2022-11-02T17:21:32.346Z,14.76
2022-11-02T17:24:36.505Z,14.67
2022-11-02T17:27:42.401Z,14.61
2022-11-02T17:30:46.815Z,14.57
2022-11-02T17:33:50.658Z,14.58
2022-11-02T17:36:53.658Z,14.57
2022-11-02T17:39:59.836Z,14.59
2022-11-02T17:43:03.136Z,14.56
2022-11-02T17:46:08.549Z,14.52
2022-11-02T17:49:11.781Z,14.52
2022-11-02T17:52:18.776Z,14.43
2022-11-02T17:55:24.659Z,14.44
2022-11-02T17:58:27.669Z,14.38
2022-11-02T18:01:30.435Z,14.41
2022-11-02T18:04:33.972Z,14.30
2022-11-02T18:07:36.740Z,14.31
2022-11-02T18:10:45.035Z,14.35
2022-11-02T18:13:47.619Z,14.32
2022-11-02T18:16:55.592Z,14.35
2022-11-02T18:19:58.171Z,14.22
2022-11-02T18:23:01.728Z,14.34
2022-11-02T18:26:04.362Z,14.23
2022-11-02T18:29:07.779Z,14.07
2022-11-02T18:32:10.702Z,14.00
2022-11-02T18:35:17.663Z,14.06
2022-11-02T18:38:20.685Z,14.06
2022-11-02T18:41:30.161Z,13.93
2022-11-02T18:44:33.025Z,13.80
2022-11-02T18:47:36.193Z,13.66
2022-11-02T18:50:39.068Z,13.67
2022-11-02T18:53:42.275Z,13.61
2022-11-02T18:56:45.381Z,13.61
2022-11-02T18:59:48.419Z,13.80
2022-11-02T19:02:51.057Z,13.59
2022-11-02T19:06:15.900Z,13.72
2022-11-02T19:09:21.476Z,13.76
2022-11-02T19:12:27.818Z,13.81
2022-11-02T19:15:31.089Z,13.76
2022-11-02T19:18:34.439Z,13.64
2022-11-02T19:21:38.621Z,13.68
2022-11-02T19:24:42.371Z,13.49
2022-11-02T19:27:44.979Z,13.29
2022-11-02T19:30:48.030Z,13.28
2022-11-02T19:33:51.310Z,13.51
2022-11-02T19:36:54.422Z,13.51
2022-11-02T19:39:57.162Z,13.52
2022-11-02T19:43:00.315Z,13.57
2022-11-02T19:46:08.730Z,13.57
2022-11-02T19:49:12.209Z,13.45
2022-11-02T19:52:14.953Z,13.33
2022-11-02T19:55:17.735Z,13.34
2022-11-02T19:58:20.552Z,13.38
2022-11-02T20:01:32.312Z,13.43
2022-11-02T20:04:41.964Z,13.47
2022-11-02T20:07:45.174Z,13.38
2022-11-02T20:10:48.231Z,13.50
2022-11-02T20:13:51.233Z,13.47
2022-11-02T20:17:10.586Z,13.41
2022-11-02T20:20:16.997Z,13.25
2022-11-02T20:23:21.082Z,13.14
2022-11-02T20:26:29.862Z,13.16
2022-11-02T20:29:33.343Z,13.23
2022-11-02T20:32:36.049Z,13.29
2022-11-02T20:35:40.009Z,13.11
2022-11-02T20:38:44.001Z,13.07
2022-11-02T20:41:47.161Z,13.04
2022-11-02T20:44:49.877Z,13.07
2022-11-02T20:47:54.387Z,13.02
2022-11-02T20:50:57.139Z,12.93
2022-11-02T20:54:00.790Z,12.89
2022-11-02T20:57:03.638Z,12.83
2022-11-02T21:00:08.826Z,12.63
2022-11-02T21:03:11.891Z,12.66
2022-11-02T21:06:14.971Z,12.58
2022-11-02T21:09:18.502Z,12.51
2022-11-02T21:12:40.525Z,12.62
2022-11-02T21:15:43.579Z,12.61
2022-11-02T21:18:46.475Z,12.53
2022-11-02T21:21:49.003Z,12.56
2022-11-02T21:24:52.207Z,12.65
2022-11-02T21:27:55.672Z,12.68
2022-11-02T21:31:02.760Z,12.62
2022-11-02T21:34:05.263Z,12.61
2022-11-02T21:37:08.030Z,12.85
2022-11-02T21:40:11.275Z,12.92
2022-11-02T21:43:14.188Z,12.83
2022-11-02T21:46:16.812Z,12.83
2022-11-02T21:49:19.752Z,12.93
2022-11-02T21:52:22.168Z,12.95
2022-11-02T21:55:25.064Z,12.97
2022-11-02T21:58:28.353Z,12.78
2022-11-02T22:01:45.610Z,12.76
2022-11-02T22:04:53.680Z,12.81
2022-11-02T22:08:14.922Z,12.80
2022-11-02T22:11:24.610Z,12.68
2022-11-02T22:14:27.145Z,12.72
2022-11-02T22:17:48.435Z,12.85
2022-11-02T22:20:55.517Z,12.84
2022-11-02T22:23:58.679Z,12.87
2022-11-02T22:27:01.093Z,12.79
2022-11-02T22:30:04.189Z,12.73
2022-11-02T22:33:09.108Z,12.61
2022-11-02T22:36:13.955Z,12.70
2022-11-02T22:39:16.541Z,12.68
2022-11-02T22:42:19.368Z,12.72
2022-11-02T22:45:21.893Z,12.72
2022-11-02T22:48:24.813Z,12.82
2022-11-02T22:51:29.371Z,12.78
2022-11-02T22:54:32.207Z,12.85
2022-11-02T22:57:34.786Z,12.82
2022-11-02T23:00:38.976Z,12.69
2022-11-02T23:03:41.756Z,12.69
2022-11-02T23:06:44.501Z,12.90
2022-11-02T23:09:46.933Z,12.97
2022-11-02T23:12:49.697Z,13.03
2022-11-02T23:15:52.281Z,12.88
2022-11-02T23:19:31.339Z,12.85
2022-11-02T23:22:34.334Z,12.73
2022-11-02T23:25:37.145Z,12.58
2022-11-02T23:28:58.342Z,12.64
2022-11-02T23:32:19.698Z,12.51
2022-11-02T23:35:40.637Z,12.43
2022-11-02T23:39:04.757Z,12.53
2022-11-02T23:42:07.342Z,12.38
2022-11-02T23:45:10.913Z,12.36
2022-11-02T23:48:13.439Z,12.30
2022-11-02T23:51:34.875Z,12.30
2022-11-02T23:54:55.637Z,12.25
2022-11-02T23:57:58.752Z,12.12
